sensor_id;sensor_type;location;lat;lon;timestamp;temperature;humidity
10304;DHT22;5197;48.152;8.590;2023-09-19T00:00:22;15.40;23.10
10304;DHT22;5197;48.152;8.590;2023-09-19T00:02:56;15.40;23.80
10304;DHT22;5197;48.152;8.590;2023-09-19T00:05:27;15.40;23.60
10304;DHT22;5197;48.152;8.590;2023-09-19T00:07:58;15.40;23.90
10304;DHT22;5197;48.152;8.590;2023-09-19T00:10:26;15.40;23.40
10304;DHT22;5197;48.152;8.590;2023-09-19T00:12:54;15.40;23.50
10304;DHT22;5197;48.152;8.590;2023-09-19T00:15:26;15.40;23.40
10304;DHT22;5197;48.152;8.590;2023-09-19T00:17:56;15.40;23.40
10304;DHT22;5197;48.152;8.590;2023-09-19T00:20:23;15.30;24.00
10304;DHT22;5197;48.152;8.590;2023-09-19T00:22:51;15.30;24.00
10304;DHT22;5197;48.152;8.590;2023-09-19T00:25:19;15.30;24.00
10304;DHT22;5197;48.152;8.590;2023-09-19T00:27:47;15.30;23.90
10304;DHT22;5197;48.152;8.590;2023-09-19T00:30:18;15.30;23.80
10304;DHT22;5197;48.152;8.590;2023-09-19T00:32:49;15.30;24.90
10304;DHT22;5197;48.152;8.590;2023-09-19T00:35:21;15.30;23.90
10304;DHT22;5197;48.152;8.590;2023-09-19T00:37:53;15.30;23.50
10304;DHT22;5197;48.152;8.590;2023-09-19T00:40:20;15.30;23.40
10304;DHT22;5197;48.152;8.590;2023-09-19T00:42:49;15.30;23.10
10304;DHT22;5197;48.152;8.590;2023-09-19T00:45:17;15.30;23.30
10304;DHT22;5197;48.152;8.590;2023-09-19T00:47:47;15.30;23.00
10304;DHT22;5197;48.152;8.590;2023-09-19T00:50:19;15.30;22.90
10304;DHT22;5197;48.152;8.590;2023-09-19T00:52:50;15.30;22.80
10304;DHT22;5197;48.152;8.590;2023-09-19T00:55:20;15.30;22.90
10304;DHT22;5197;48.152;8.590;2023-09-19T00:57:47;15.30;22.70
10304;DHT22;5197;48.152;8.590;2023-09-19T01:00:17;15.30;23.50
10304;DHT22;5197;48.152;8.590;2023-09-19T01:02:47;15.40;22.30
10304;DHT22;5197;48.152;8.590;2023-09-19T01:05:15;15.40;22.20
10304;DHT22;5197;48.152;8.590;2023-09-19T01:07:43;15.40;22.10
10304;DHT22;5197;48.152;8.590;2023-09-19T01:10:17;15.40;22.00
10304;DHT22;5197;48.152;8.590;2023-09-19T01:31:49;15.40;21.20
10304;DHT22;5197;48.152;8.590;2023-09-19T01:34:21;15.30;21.30
10304;DHT22;5197;48.152;8.590;2023-09-19T01:36:48;15.30;21.00
10304;DHT22;5197;48.152;8.590;2023-09-19T01:39:15;15.30;20.90
10304;DHT22;5197;48.152;8.590;2023-09-19T01:42:05;15.30;20.80
10304;DHT22;5197;48.152;8.590;2023-09-19T01:45:17;15.30;20.70
10304;DHT22;5197;48.152;8.590;2023-09-19T01:47:52;15.30;20.30
10304;DHT22;5197;48.152;8.590;2023-09-19T01:50:41;15.30;20.90
10304;DHT22;5197;48.152;8.590;2023-09-19T01:56:40;15.20;20.40
10304;DHT22;5197;48.152;8.590;2023-09-19T01:59:13;15.20;20.60
10304;DHT22;5197;48.152;8.590;2023-09-19T02:01:42;15.20;21.30
10304;DHT22;5197;48.152;8.590;2023-09-19T02:04:11;15.20;21.30
10304;DHT22;5197;48.152;8.590;2023-09-19T02:06:40;15.20;21.50
10304;DHT22;5197;48.152;8.590;2023-09-19T02:09:08;15.20;21.50
10304;DHT22;5197;48.152;8.590;2023-09-19T02:11:35;15.10;21.50
10304;DHT22;5197;48.152;8.590;2023-09-19T02:14:04;15.10;21.60
10304;DHT22;5197;48.152;8.590;2023-09-19T02:16:35;15.20;21.80
10304;DHT22;5197;48.152;8.590;2023-09-19T02:19:02;15.10;21.90
10304;DHT22;5197;48.152;8.590;2023-09-19T02:21:32;15.20;22.00
10304;DHT22;5197;48.152;8.590;2023-09-19T02:24:00;15.10;21.90
10304;DHT22;5197;48.152;8.590;2023-09-19T02:26:27;15.20;21.90
10304;DHT22;5197;48.152;8.590;2023-09-19T02:28:55;15.20;22.00
10304;DHT22;5197;48.152;8.590;2023-09-19T02:31:22;15.20;22.10
10304;DHT22;5197;48.152;8.590;2023-09-19T02:33:49;15.20;22.00
10304;DHT22;5197;48.152;8.590;2023-09-19T02:36:16;15.20;22.00
10304;DHT22;5197;48.152;8.590;2023-09-19T02:38:44;15.20;21.80
10304;DHT22;5197;48.152;8.590;2023-09-19T02:41:11;15.30;21.70
10304;DHT22;5197;48.152;8.590;2023-09-19T02:43:38;15.30;21.50
10304;DHT22;5197;48.152;8.590;2023-09-19T02:46:06;15.30;21.40
10304;DHT22;5197;48.152;8.590;2023-09-19T02:48:33;15.30;21.30
10304;DHT22;5197;48.152;8.590;2023-09-19T02:51:02;15.30;22.20
10304;DHT22;5197;48.152;8.590;2023-09-19T02:53:32;15.30;21.20
10304;DHT22;5197;48.152;8.590;2023-09-19T02:55:59;15.30;21.10
10304;DHT22;5197;48.152;8.590;2023-09-19T02:58:28;15.30;21.20
10304;DHT22;5197;48.152;8.590;2023-09-19T03:00:57;15.30;21.20
10304;DHT22;5197;48.152;8.590;2023-09-19T03:03:24;15.30;21.00
10304;DHT22;5197;48.152;8.590;2023-09-19T03:05:51;15.30;21.00
10304;DHT22;5197;48.152;8.590;2023-09-19T03:08:21;15.30;21.10
10304;DHT22;5197;48.152;8.590;2023-09-19T03:10:49;15.30;21.00
10304;DHT22;5197;48.152;8.590;2023-09-19T03:13:16;15.30;21.00
10304;DHT22;5197;48.152;8.590;2023-09-19T03:15:44;15.30;21.00
10304;DHT22;5197;48.152;8.590;2023-09-19T03:18:14;15.30;20.90
10304;DHT22;5197;48.152;8.590;2023-09-19T03:20:41;15.30;20.90
10304;DHT22;5197;48.152;8.590;2023-09-19T03:23:08;15.30;20.90
10304;DHT22;5197;48.152;8.590;2023-09-19T03:25:35;15.30;20.80
10304;DHT22;5197;48.152;8.590;2023-09-19T03:28:03;15.30;20.80
10304;DHT22;5197;48.152;8.590;2023-09-19T03:30:34;15.30;21.90
10304;DHT22;5197;48.152;8.590;2023-09-19T03:33:01;15.30;21.00
10304;DHT22;5197;48.152;8.590;2023-09-19T03:35:28;15.20;21.20
10304;DHT22;5197;48.152;8.590;2023-09-19T03:37:56;15.30;21.30
10304;DHT22;5197;48.152;8.590;2023-09-19T03:40:23;15.30;21.20
10304;DHT22;5197;48.152;8.590;2023-09-19T03:42:50;15.20;21.20
10304;DHT22;5197;48.152;8.590;2023-09-19T03:45:17;15.20;21.30
10304;DHT22;5197;48.152;8.590;2023-09-19T03:47:45;15.20;21.20
10304;DHT22;5197;48.152;8.590;2023-09-19T03:50:15;15.20;21.20
10304;DHT22;5197;48.152;8.590;2023-09-19T03:52:45;15.20;21.30
10304;DHT22;5197;48.152;8.590;2023-09-19T03:55:12;15.20;21.30
10304;DHT22;5197;48.152;8.590;2023-09-19T03:57:39;15.20;21.30
10304;DHT22;5197;48.152;8.590;2023-09-19T04:00:07;15.20;21.30
10304;DHT22;5197;48.152;8.590;2023-09-19T04:02:41;15.20;21.30
10304;DHT22;5197;48.152;8.590;2023-09-19T04:05:08;15.10;21.30
10304;DHT22;5197;48.152;8.590;2023-09-19T04:07:37;15.10;21.30
10304;DHT22;5197;48.152;8.590;2023-09-19T04:10:04;15.10;21.40
10304;DHT22;5197;48.152;8.590;2023-09-19T04:12:33;15.10;21.50
10304;DHT22;5197;48.152;8.590;2023-09-19T04:15:00;15.00;21.50
10304;DHT22;5197;48.152;8.590;2023-09-19T04:17:27;15.00;21.40
10304;DHT22;5197;48.152;8.590;2023-09-19T04:19:54;15.10;21.40
10304;DHT22;5197;48.152;8.590;2023-09-19T04:22:21;15.10;21.50
10304;DHT22;5197;48.152;8.590;2023-09-19T04:24:49;15.00;21.40
10304;DHT22;5197;48.152;8.590;2023-09-19T04:27:16;15.00;21.40
10304;DHT22;5197;48.152;8.590;2023-09-19T04:29:43;15.00;21.50
10304;DHT22;5197;48.152;8.590;2023-09-19T04:32:10;15.00;21.50
10304;DHT22;5197;48.152;8.590;2023-09-19T04:34:37;15.00;21.50
10304;DHT22;5197;48.152;8.590;2023-09-19T04:37:07;15.00;21.50
10304;DHT22;5197;48.152;8.590;2023-09-19T04:39:34;15.00;21.60
10304;DHT22;5197;48.152;8.590;2023-09-19T04:42:02;15.00;21.70
10304;DHT22;5197;48.152;8.590;2023-09-19T04:44:30;15.00;21.80
10304;DHT22;5197;48.152;8.590;2023-09-19T04:46:57;14.90;21.70
10304;DHT22;5197;48.152;8.590;2023-09-19T04:49:27;15.00;21.70
10304;DHT22;5197;48.152;8.590;2023-09-19T04:51:54;14.90;21.80
10304;DHT22;5197;48.152;8.590;2023-09-19T04:54:22;14.90;21.90
10304;DHT22;5197;48.152;8.590;2023-09-19T04:56:49;14.80;21.90
10304;DHT22;5197;48.152;8.590;2023-09-19T04:59:16;14.80;21.80
10304;DHT22;5197;48.152;8.590;2023-09-19T05:01:44;14.80;21.80
10304;DHT22;5197;48.152;8.590;2023-09-19T05:04:11;14.80;21.70
10304;DHT22;5197;48.152;8.590;2023-09-19T05:06:39;14.80;21.70
10304;DHT22;5197;48.152;8.590;2023-09-19T05:09:06;14.80;21.70
10304;DHT22;5197;48.152;8.590;2023-09-19T05:11:33;14.80;21.60
10304;DHT22;5197;48.152;8.590;2023-09-19T05:14:00;14.80;21.60
10304;DHT22;5197;48.152;8.590;2023-09-19T05:16:31;14.80;21.60
10304;DHT22;5197;48.152;8.590;2023-09-19T05:19:01;14.80;21.60
10304;DHT22;5197;48.152;8.590;2023-09-19T05:21:30;14.80;21.80
10304;DHT22;5197;48.152;8.590;2023-09-19T05:23:58;14.80;22.00
10304;DHT22;5197;48.152;8.590;2023-09-19T05:26:25;14.80;22.00
10304;DHT22;5197;48.152;8.590;2023-09-19T05:28:52;14.80;22.20
10304;DHT22;5197;48.152;8.590;2023-09-19T05:31:19;14.80;22.50
10304;DHT22;5197;48.152;8.590;2023-09-19T05:33:47;14.90;22.50
10304;DHT22;5197;48.152;8.590;2023-09-19T05:36:14;14.90;22.70
10304;DHT22;5197;48.152;8.590;2023-09-19T05:38:42;15.00;22.70
10304;DHT22;5197;48.152;8.590;2023-09-19T05:41:11;15.00;22.70
10304;DHT22;5197;48.152;8.590;2023-09-19T05:43:41;15.10;22.80
10304;DHT22;5197;48.152;8.590;2023-09-19T05:46:09;15.10;22.70
10304;DHT22;5197;48.152;8.590;2023-09-19T05:48:36;15.10;22.50
10304;DHT22;5197;48.152;8.590;2023-09-19T05:51:04;15.20;22.40
10304;DHT22;5197;48.152;8.590;2023-09-19T05:53:31;15.20;22.30
10304;DHT22;5197;48.152;8.590;2023-09-19T05:55:58;15.20;22.10
10304;DHT22;5197;48.152;8.590;2023-09-19T05:58:27;15.30;22.00
10304;DHT22;5197;48.152;8.590;2023-09-19T06:00:54;15.30;21.80
10304;DHT22;5197;48.152;8.590;2023-09-19T06:03:22;15.30;21.60
10304;DHT22;5197;48.152;8.590;2023-09-19T06:05:50;15.30;21.50
10304;DHT22;5197;48.152;8.590;2023-09-19T06:08:19;15.30;21.40
10304;DHT22;5197;48.152;8.590;2023-09-19T06:10:47;15.30;21.40
10304;DHT22;5197;48.152;8.590;2023-09-19T06:13:14;15.40;21.70
10304;DHT22;5197;48.152;8.590;2023-09-19T06:15:41;15.40;22.20
10304;DHT22;5197;48.152;8.590;2023-09-19T06:18:11;15.40;22.40
10304;DHT22;5197;48.152;8.590;2023-09-19T06:20:42;15.50;22.70
10304;DHT22;5197;48.152;8.590;2023-09-19T06:23:12;15.60;23.10
10304;DHT22;5197;48.152;8.590;2023-09-19T06:25:39;15.60;23.30
10304;DHT22;5197;48.152;8.590;2023-09-19T06:28:07;15.70;23.10
10304;DHT22;5197;48.152;8.590;2023-09-19T06:30:37;15.80;22.80
10304;DHT22;5197;48.152;8.590;2023-09-19T06:33:06;15.80;22.40
10304;DHT22;5197;48.152;8.590;2023-09-19T06:35:34;15.80;22.30
10304;DHT22;5197;48.152;8.590;2023-09-19T06:38:04;15.80;22.30
10304;DHT22;5197;48.152;8.590;2023-09-19T06:40:34;15.80;21.90
10304;DHT22;5197;48.152;8.590;2023-09-19T06:43:01;15.80;21.90
10304;DHT22;5197;48.152;8.590;2023-09-19T06:45:31;15.80;21.90
10304;DHT22;5197;48.152;8.590;2023-09-19T06:47:58;17.10;22.60
10304;DHT22;5197;48.152;8.590;2023-09-19T06:50:28;15.80;21.50
10304;DHT22;5197;48.152;8.590;2023-09-19T06:52:57;15.80;21.30
10304;DHT22;5197;48.152;8.590;2023-09-19T06:55:26;15.70;21.20
10304;DHT22;5197;48.152;8.590;2023-09-19T06:57:59;15.70;20.90
10304;DHT22;5197;48.152;8.590;2023-09-19T07:00:27;15.70;20.60
10304;DHT22;5197;48.152;8.590;2023-09-19T07:02:59;15.60;20.70
10304;DHT22;5197;48.152;8.590;2023-09-19T07:05:28;15.60;20.80
10304;DHT22;5197;48.152;8.590;2023-09-19T07:07:56;15.70;20.80
10304;DHT22;5197;48.152;8.590;2023-09-19T07:10:23;15.70;21.00
10304;DHT22;5197;48.152;8.590;2023-09-19T07:13:09;15.70;20.90
10304;DHT22;5197;48.152;8.590;2023-09-19T07:15:38;15.80;20.20
10304;DHT22;5197;48.152;8.590;2023-09-19T07:18:08;15.80;20.60
10304;DHT22;5197;48.152;8.590;2023-09-19T07:20:38;15.80;20.40
10304;DHT22;5197;48.152;8.590;2023-09-19T07:23:06;15.80;20.20
10304;DHT22;5197;48.152;8.590;2023-09-19T07:25:35;15.90;20.10
10304;DHT22;5197;48.152;8.590;2023-09-19T07:28:03;15.90;19.90
10304;DHT22;5197;48.152;8.590;2023-09-19T07:30:30;15.90;19.70
10304;DHT22;5197;48.152;8.590;2023-09-19T07:32:58;15.90;19.60
10304;DHT22;5197;48.152;8.590;2023-09-19T07:35:25;15.80;19.70
10304;DHT22;5197;48.152;8.590;2023-09-19T07:37:53;15.50;19.30
10304;DHT22;5197;48.152;8.590;2023-09-19T07:40:20;15.10;19.50
10304;DHT22;5197;48.152;8.590;2023-09-19T07:42:50;14.70;21.40
10304;DHT22;5197;48.152;8.590;2023-09-19T07:45:17;14.40;23.70
10304;DHT22;5197;48.152;8.590;2023-09-19T07:47:47;14.40;24.00
10304;DHT22;5197;48.152;8.590;2023-09-19T07:50:18;14.40;25.10
10304;DHT22;5197;48.152;8.590;2023-09-19T07:52:50;14.50;27.00
10304;DHT22;5197;48.152;8.590;2023-09-19T07:55:20;14.80;25.90
10304;DHT22;5197;48.152;8.590;2023-09-19T07:57:53;15.20;29.50
10304;DHT22;5197;48.152;8.590;2023-09-19T08:00:20;15.60;26.20
10304;DHT22;5197;48.152;8.590;2023-09-19T08:02:47;16.00;25.50
10304;DHT22;5197;48.152;8.590;2023-09-19T08:05:24;16.40;22.80
10304;DHT22;5197;48.152;8.590;2023-09-19T08:07:52;16.30;17.60
10304;DHT22;5197;48.152;8.590;2023-09-19T08:10:20;16.30;19.30
10304;DHT22;5197;48.152;8.590;2023-09-19T08:12:49;16.40;20.10
10304;DHT22;5197;48.152;8.590;2023-09-19T08:15:23;16.80;20.00
10304;DHT22;5197;48.152;8.590;2023-09-19T08:17:50;16.80;15.60
10304;DHT22;5197;48.152;8.590;2023-09-19T08:20:17;17.10;18.00
10304;DHT22;5197;48.152;8.590;2023-09-19T08:22:48;17.40;16.90
10304;DHT22;5197;48.152;8.590;2023-09-19T08:25:16;18.10;14.90
10304;DHT22;5197;48.152;8.590;2023-09-19T08:27:46;17.40;13.40
10304;DHT22;5197;48.152;8.590;2023-09-19T08:30:19;17.40;14.00
10304;DHT22;5197;48.152;8.590;2023-09-19T08:32:56;17.30;13.40
10304;DHT22;5197;48.152;8.590;2023-09-19T08:35:24;17.30;14.00
10304;DHT22;5197;48.152;8.590;2023-09-19T08:37:51;17.30;13.50
10304;DHT22;5197;48.152;8.590;2023-09-19T08:40:18;17.40;14.20
10304;DHT22;5197;48.152;8.590;2023-09-19T08:42:50;17.70;14.10
10304;DHT22;5197;48.152;8.590;2023-09-19T08:45:17;18.10;12.00
10304;DHT22;5197;48.152;8.590;2023-09-19T08:48:00;18.20;10.30
10304;DHT22;5197;48.152;8.590;2023-09-19T08:50:30;17.90;6.70
10304;DHT22;5197;48.152;8.590;2023-09-19T08:53:01;17.80;7.80
10304;DHT22;5197;48.152;8.590;2023-09-19T08:55:29;17.80;7.80
10304;DHT22;5197;48.152;8.590;2023-09-19T08:58:03;17.80;7.30
10304;DHT22;5197;48.152;8.590;2023-09-19T09:00:31;17.70;6.10
10304;DHT22;5197;48.152;8.590;2023-09-19T09:02:59;17.60;6.80
10304;DHT22;5197;48.152;8.590;2023-09-19T09:05:28;17.50;6.30
10304;DHT22;5197;48.152;8.590;2023-09-19T09:07:57;17.30;5.60
10304;DHT22;5197;48.152;8.590;2023-09-19T09:10:25;17.20;5.60
10304;DHT22;5197;48.152;8.590;2023-09-19T09:12:54;17.20;5.40
10304;DHT22;5197;48.152;8.590;2023-09-19T09:15:24;17.10;5.40
10304;DHT22;5197;48.152;8.590;2023-09-19T09:17:52;17.20;5.50
10304;DHT22;5197;48.152;8.590;2023-09-19T09:20:22;17.30;5.70
10304;DHT22;5197;48.152;8.590;2023-09-19T09:22:54;17.30;5.70
10304;DHT22;5197;48.152;8.590;2023-09-19T09:25:22;17.50;5.60
10304;DHT22;5197;48.152;8.590;2023-09-19T09:28:00;17.60;5.00
10304;DHT22;5197;48.152;8.590;2023-09-19T09:30:36;17.60;2.60
10304;DHT22;5197;48.152;8.590;2023-09-19T09:33:14;17.60;4.90
10304;DHT22;5197;48.152;8.590;2023-09-19T09:35:53;17.50;4.20
10304;DHT22;5197;48.152;8.590;2023-09-19T09:38:25;17.40;3.00
10304;DHT22;5197;48.152;8.590;2023-09-19T09:40:56;17.20;5.00
10304;DHT22;5197;48.152;8.590;2023-09-19T09:43:35;17.20;4.60
10304;DHT22;5197;48.152;8.590;2023-09-19T09:46:07;17.10;5.10
10304;DHT22;5197;48.152;8.590;2023-09-19T09:49:00;17.10;4.80
10304;DHT22;5197;48.152;8.590;2023-09-19T09:52:04;17.00;4.60
10304;DHT22;5197;48.152;8.590;2023-09-19T09:54:38;17.10;4.00
10304;DHT22;5197;48.152;8.590;2023-09-19T09:57:10;17.20;5.10
10304;DHT22;5197;48.152;8.590;2023-09-19T09:59:55;17.20;2.40
10304;DHT22;5197;48.152;8.590;2023-09-19T10:02:29;17.10;2.20
10304;DHT22;5197;48.152;8.590;2023-09-19T10:05:14;17.10;2.30
10304;DHT22;5197;48.152;8.590;2023-09-19T10:07:51;17.20;2.40
10304;DHT22;5197;48.152;8.590;2023-09-19T10:10:32;17.20;2.40
10304;DHT22;5197;48.152;8.590;2023-09-19T10:13:07;17.20;2.10
10304;DHT22;5197;48.152;8.590;2023-09-19T10:15:35;17.30;2.40
10304;DHT22;5197;48.152;8.590;2023-09-19T10:18:07;17.30;2.50
10304;DHT22;5197;48.152;8.590;2023-09-19T10:20:37;17.40;1.00
10304;DHT22;5197;48.152;8.590;2023-09-19T10:23:07;17.50;1.00
10304;DHT22;5197;48.152;8.590;2023-09-19T10:25:39;17.50;1.00
10304;DHT22;5197;48.152;8.590;2023-09-19T10:28:08;17.50;1.00
10304;DHT22;5197;48.152;8.590;2023-09-19T10:30:47;17.50;1.00
10304;DHT22;5197;48.152;8.590;2023-09-19T10:33:21;17.70;1.00
10304;DHT22;5197;48.152;8.590;2023-09-19T10:35:50;17.80;1.00
10304;DHT22;5197;48.152;8.590;2023-09-19T10:38:26;17.80;1.00
10304;DHT22;5197;48.152;8.590;2023-09-19T10:40:54;17.90;1.00
10304;DHT22;5197;48.152;8.590;2023-09-19T10:43:31;18.00;1.00
10304;DHT22;5197;48.152;8.590;2023-09-19T10:46:09;18.10;1.00
10304;DHT22;5197;48.152;8.590;2023-09-19T10:48:39;18.20;1.00
10304;DHT22;5197;48.152;8.590;2023-09-19T10:51:14;18.10;1.00
10304;DHT22;5197;48.152;8.590;2023-09-19T10:53:52;18.10;1.00
10304;DHT22;5197;48.152;8.590;2023-09-19T10:56:27;18.20;1.00
10304;DHT22;5197;48.152;8.590;2023-09-19T10:59:10;18.30;1.00
10304;DHT22;5197;48.152;8.590;2023-09-19T11:01:55;18.40;1.00
10304;DHT22;5197;48.152;8.590;2023-09-19T11:04:33;18.50;1.00
10304;DHT22;5197;48.152;8.590;2023-09-19T11:07:28;18.70;1.00
10304;DHT22;5197;48.152;8.590;2023-09-19T11:09:57;18.90;1.00
10304;DHT22;5197;48.152;8.590;2023-09-19T11:12:48;19.00;1.00
10304;DHT22;5197;48.152;8.590;2023-09-19T11:26:49;18.90;1.00
10304;DHT22;5197;48.152;8.590;2023-09-19T11:29:29;18.90;1.00
10304;DHT22;5197;48.152;8.590;2023-09-19T11:31:58;18.80;1.00
10304;DHT22;5197;48.152;8.590;2023-09-19T11:34:42;18.90;1.00
10304;DHT22;5197;48.152;8.590;2023-09-19T11:40:07;18.80;1.00
10304;DHT22;5197;48.152;8.590;2023-09-19T11:42:55;18.90;1.00
10304;DHT22;5197;48.152;8.590;2023-09-19T11:48:24;19.00;1.00
10304;DHT22;5197;48.152;8.590;2023-09-19T11:50:53;19.10;1.00
10304;DHT22;5197;48.152;8.590;2023-09-19T11:53:23;19.10;1.00
10304;DHT22;5197;48.152;8.590;2023-09-19T11:55:53;19.10;1.00
10304;DHT22;5197;48.152;8.590;2023-09-19T11:58:20;19.20;1.00
10304;DHT22;5197;48.152;8.590;2023-09-19T12:01:01;19.10;1.00
10304;DHT22;5197;48.152;8.590;2023-09-19T12:03:35;19.10;1.00
10304;DHT22;5197;48.152;8.590;2023-09-19T12:06:12;19.20;1.00
10304;DHT22;5197;48.152;8.590;2023-09-19T12:08:43;19.30;1.00
10304;DHT22;5197;48.152;8.590;2023-09-19T12:11:14;19.40;1.00
10304;DHT22;5197;48.152;8.590;2023-09-19T12:13:47;19.50;1.00
10304;DHT22;5197;48.152;8.590;2023-09-19T12:16:17;19.50;1.00
10304;DHT22;5197;48.152;8.590;2023-09-19T12:19:17;19.60;1.00
10304;DHT22;5197;48.152;8.590;2023-09-19T12:21:44;19.70;1.00
10304;DHT22;5197;48.152;8.590;2023-09-19T12:24:14;19.70;1.00
10304;DHT22;5197;48.152;8.590;2023-09-19T12:26:46;19.80;1.00
10304;DHT22;5197;48.152;8.590;2023-09-19T12:29:21;19.80;1.00
10304;DHT22;5197;48.152;8.590;2023-09-19T12:34:30;19.90;1.00
10304;DHT22;5197;48.152;8.590;2023-09-19T12:40:04;19.90;1.00
10304;DHT22;5197;48.152;8.590;2023-09-19T12:42:42;20.00;1.00
10304;DHT22;5197;48.152;8.590;2023-09-19T12:45:10;20.10;1.00
10304;DHT22;5197;48.152;8.590;2023-09-19T12:47:37;20.10;1.00
10304;DHT22;5197;48.152;8.590;2023-09-19T12:50:14;20.10;1.00
10304;DHT22;5197;48.152;8.590;2023-09-19T12:52:56;20.20;1.00
10304;DHT22;5197;48.152;8.590;2023-09-19T12:55:28;20.20;1.00
10304;DHT22;5197;48.152;8.590;2023-09-19T13:00:38;20.30;1.00
10304;DHT22;5197;48.152;8.590;2023-09-19T13:05:53;20.40;1.00
10304;DHT22;5197;48.152;8.590;2023-09-19T13:08:27;20.40;1.00
10304;DHT22;5197;48.152;8.590;2023-09-19T13:13:28;20.60;1.00
10304;DHT22;5197;48.152;8.590;2023-09-19T13:15:55;20.60;1.00
10304;DHT22;5197;48.152;8.590;2023-09-19T13:18:24;20.50;1.00
10304;DHT22;5197;48.152;8.590;2023-09-19T13:21:09;20.50;1.00
10304;DHT22;5197;48.152;8.590;2023-09-19T13:23:39;20.40;1.00
10304;DHT22;5197;48.152;8.590;2023-09-19T13:26:07;20.40;1.00
10304;DHT22;5197;48.152;8.590;2023-09-19T13:28:34;20.40;1.00
10304;DHT22;5197;48.152;8.590;2023-09-19T13:31:02;20.40;1.00
10304;DHT22;5197;48.152;8.590;2023-09-19T13:33:29;20.60;1.00
10304;DHT22;5197;48.152;8.590;2023-09-19T13:35:57;20.50;1.00
10304;DHT22;5197;48.152;8.590;2023-09-19T13:38:25;20.60;1.00
10304;DHT22;5197;48.152;8.590;2023-09-19T13:40:52;20.60;1.00
10304;DHT22;5197;48.152;8.590;2023-09-19T13:43:19;20.70;1.00
10304;DHT22;5197;48.152;8.590;2023-09-19T13:45:48;20.70;1.00
10304;DHT22;5197;48.152;8.590;2023-09-19T13:48:17;20.60;1.00
10304;DHT22;5197;48.152;8.590;2023-09-19T13:50:49;20.60;1.00
10304;DHT22;5197;48.152;8.590;2023-09-19T13:53:16;20.70;1.00
10304;DHT22;5197;48.152;8.590;2023-09-19T13:55:43;20.70;1.00
10304;DHT22;5197;48.152;8.590;2023-09-19T13:58:11;20.80;1.00
10304;DHT22;5197;48.152;8.590;2023-09-19T14:00:39;20.80;1.00
10304;DHT22;5197;48.152;8.590;2023-09-19T14:03:06;20.90;1.00
10304;DHT22;5197;48.152;8.590;2023-09-19T14:05:34;21.00;1.00
10304;DHT22;5197;48.152;8.590;2023-09-19T14:08:01;21.00;1.00
10304;DHT22;5197;48.152;8.590;2023-09-19T14:10:30;20.80;1.00
10304;DHT22;5197;48.152;8.590;2023-09-19T14:12:58;20.70;1.00
10304;DHT22;5197;48.152;8.590;2023-09-19T14:15:27;20.60;1.00
10304;DHT22;5197;48.152;8.590;2023-09-19T14:17:58;20.70;1.00
10304;DHT22;5197;48.152;8.590;2023-09-19T14:20:27;20.70;1.00
10304;DHT22;5197;48.152;8.590;2023-09-19T14:22:54;20.80;1.00
10304;DHT22;5197;48.152;8.590;2023-09-19T14:25:22;20.80;1.00
10304;DHT22;5197;48.152;8.590;2023-09-19T14:27:50;20.90;1.00
10304;DHT22;5197;48.152;8.590;2023-09-19T14:30:17;20.90;1.00
10304;DHT22;5197;48.152;8.590;2023-09-19T14:32:45;20.90;1.00
10304;DHT22;5197;48.152;8.590;2023-09-19T14:35:12;20.90;1.00
10304;DHT22;5197;48.152;8.590;2023-09-19T14:37:40;21.00;1.00
10304;DHT22;5197;48.152;8.590;2023-09-19T14:40:08;21.00;1.00
10304;DHT22;5197;48.152;8.590;2023-09-19T14:42:39;21.00;1.00
10304;DHT22;5197;48.152;8.590;2023-09-19T14:45:06;21.10;1.00
10304;DHT22;5197;48.152;8.590;2023-09-19T14:47:34;21.00;1.00
10304;DHT22;5197;48.152;8.590;2023-09-19T14:50:02;21.00;1.00
10304;DHT22;5197;48.152;8.590;2023-09-19T14:52:33;21.00;1.00
10304;DHT22;5197;48.152;8.590;2023-09-19T14:55:03;21.10;1.00
10304;DHT22;5197;48.152;8.590;2023-09-19T14:57:31;21.10;1.00
10304;DHT22;5197;48.152;8.590;2023-09-19T14:59:59;21.20;1.00
10304;DHT22;5197;48.152;8.590;2023-09-19T15:02:28;21.30;1.00
10304;DHT22;5197;48.152;8.590;2023-09-19T15:04:56;21.90;1.00
10304;DHT22;5197;48.152;8.590;2023-09-19T15:07:24;21.40;1.00
10304;DHT22;5197;48.152;8.590;2023-09-19T15:09:50;21.20;1.00
10304;DHT22;5197;48.152;8.590;2023-09-19T15:12:18;21.10;1.00
10304;DHT22;5197;48.152;8.590;2023-09-19T15:14:44;21.10;1.00
10304;DHT22;5197;48.152;8.590;2023-09-19T15:17:12;21.10;1.00
10304;DHT22;5197;48.152;8.590;2023-09-19T15:19:39;21.20;1.00
10304;DHT22;5197;48.152;8.590;2023-09-19T15:22:06;21.10;1.00
10304;DHT22;5197;48.152;8.590;2023-09-19T15:24:33;21.10;1.00
10304;DHT22;5197;48.152;8.590;2023-09-19T15:27:01;21.20;1.00
10304;DHT22;5197;48.152;8.590;2023-09-19T15:29:28;21.20;1.00
10304;DHT22;5197;48.152;8.590;2023-09-19T15:31:55;21.10;1.00
10304;DHT22;5197;48.152;8.590;2023-09-19T15:34:25;21.10;1.00
10304;DHT22;5197;48.152;8.590;2023-09-19T15:36:52;21.00;1.00
10304;DHT22;5197;48.152;8.590;2023-09-19T15:39:21;21.00;1.00
10304;DHT22;5197;48.152;8.590;2023-09-19T15:41:49;21.00;1.00
10304;DHT22;5197;48.152;8.590;2023-09-19T15:44:20;21.00;1.00
10304;DHT22;5197;48.152;8.590;2023-09-19T15:46:47;21.00;1.00
10304;DHT22;5197;48.152;8.590;2023-09-19T15:49:15;21.00;1.00
10304;DHT22;5197;48.152;8.590;2023-09-19T15:51:42;21.00;1.00
10304;DHT22;5197;48.152;8.590;2023-09-19T15:54:14;21.00;1.00
10304;DHT22;5197;48.152;8.590;2023-09-19T15:56:43;21.00;1.00
10304;DHT22;5197;48.152;8.590;2023-09-19T15:59:10;21.00;1.00
10304;DHT22;5197;48.152;8.590;2023-09-19T16:01:40;21.00;1.00
10304;DHT22;5197;48.152;8.590;2023-09-19T16:04:09;21.00;1.00
10304;DHT22;5197;48.152;8.590;2023-09-19T16:06:37;20.90;1.00
10304;DHT22;5197;48.152;8.590;2023-09-19T16:09:05;20.90;1.00
10304;DHT22;5197;48.152;8.590;2023-09-19T16:11:33;20.90;1.00
10304;DHT22;5197;48.152;8.590;2023-09-19T16:14:03;20.80;1.00
10304;DHT22;5197;48.152;8.590;2023-09-19T16:16:31;20.80;1.00
10304;DHT22;5197;48.152;8.590;2023-09-19T16:19:00;20.80;1.00
10304;DHT22;5197;48.152;8.590;2023-09-19T16:21:31;20.80;1.00
10304;DHT22;5197;48.152;8.590;2023-09-19T16:23:59;20.80;1.00
10304;DHT22;5197;48.152;8.590;2023-09-19T16:26:28;20.70;1.00
10304;DHT22;5197;48.152;8.590;2023-09-19T16:28:57;20.70;1.00
10304;DHT22;5197;48.152;8.590;2023-09-19T16:31:28;20.70;1.00
10304;DHT22;5197;48.152;8.590;2023-09-19T16:33:57;20.60;1.00
10304;DHT22;5197;48.152;8.590;2023-09-19T16:36:27;20.60;1.00
10304;DHT22;5197;48.152;8.590;2023-09-19T16:38:55;20.50;1.00
10304;DHT22;5197;48.152;8.590;2023-09-19T16:41:22;20.60;1.00
10304;DHT22;5197;48.152;8.590;2023-09-19T16:43:50;20.50;1.00
10304;DHT22;5197;48.152;8.590;2023-09-19T16:46:17;20.50;1.00
10304;DHT22;5197;48.152;8.590;2023-09-19T16:48:46;20.50;1.00
10304;DHT22;5197;48.152;8.590;2023-09-19T16:51:18;20.50;1.00
10304;DHT22;5197;48.152;8.590;2023-09-19T16:53:45;20.40;1.00
10304;DHT22;5197;48.152;8.590;2023-09-19T16:56:13;20.30;1.00
10304;DHT22;5197;48.152;8.590;2023-09-19T16:58:43;20.30;1.00
10304;DHT22;5197;48.152;8.590;2023-09-19T17:01:12;20.20;1.00
10304;DHT22;5197;48.152;8.590;2023-09-19T17:03:43;20.10;1.00